Time;durP1;ratioP1;P1;durP2;ratioP2;P2;SDS_P1;SDS_P2;PMS_P1;PMS_P2;Temp;Humidity;BMP_temperature;BMP_pressure;BME280_temperature;BME280_humidity;BME280_pressure;Samples;Min_cycle;Max_cycle;Signal;HPM_P1;HPM_P2
2023/08/01 05:47:30;;;;;;;6.70;2.95;;;19.40;99.90;;;;;;4864350;29;20461;-80
2023/08/01 05:49:57;;;;;;;6.47;3.20;;;19.40;99.90;;;;;;4898316;29;20163;-82
2023/08/01 05:52:24;;;;;;;6.45;2.78;;;19.40;99.90;;;;;;4884529;29;20052;-81
2023/08/01 05:54:51;;;;;;;5.07;3.30;;;19.40;99.90;;;;;;4885504;29;20053;-81
2023/08/01 05:57:17;;;;;;;9.40;3.60;;;19.30;99.90;;;;;;4898105;29;20113;-82
2023/08/01 05:59:44;;;;;;;10.80;3.40;;;19.40;99.90;;;;;;4897343;29;20053;-80
2023/08/01 06:02:11;;;;;;;9.20;3.75;;;19.30;99.90;;;;;;4894643;29;20140;-79
2023/08/01 06:04:38;;;;;;;5.68;3.13;;;19.30;99.90;;;;;;4882866;29;20068;-81
2023/08/01 06:07:05;;;;;;;5.72;3.20;;;19.30;99.90;;;;;;4882565;29;20059;-80
2023/08/01 06:09:32;;;;;;;7.53;3.30;;;19.30;99.90;;;;;;4924187;23;20052;-81
2023/08/01 06:11:59;;;;;;;7.15;3.20;;;19.30;99.90;;;;;;4912436;29;20044;-81
2023/08/01 06:14:25;;;;;;;6.97;2.83;;;19.30;99.90;;;;;;4915486;29;20052;-81
2023/08/01 06:16:52;;;;;;;5.72;3.53;;;19.40;99.90;;;;;;4916810;29;20555;-81
2023/08/01 06:19:19;;;;;;;6.03;3.35;;;19.30;99.90;;;;;;4916752;29;20059;-82
2023/08/01 06:21:46;;;;;;;7.57;3.00;;;19.40;99.90;;;;;;4914979;29;20079;-81
2023/08/01 06:24:12;;;;;;;5.43;3.25;;;19.30;99.90;;;;;;4918201;29;20524;-81
2023/08/01 06:26:39;;;;;;;7.07;3.63;;;19.40;99.90;;;;;;4913453;29;20052;-81
2023/08/01 06:29:06;;;;;;;5.10;2.97;;;19.40;99.90;;;;;;4909464;29;20044;-80
2023/08/01 06:31:33;;;;;;;7.65;3.20;;;19.40;99.90;;;;;;4916129;29;20080;-81
2023/08/01 06:34:00;;;;;;;6.80;3.20;;;19.40;99.90;;;;;;4918757;29;20488;-81
2023/08/01 06:36:26;;;;;;;7.35;3.20;;;19.50;99.90;;;;;;4914996;29;20124;-81
2023/08/01 06:38:53;;;;;;;5.18;2.97;;;19.50;99.90;;;;;;4908639;29;20153;-81
2023/08/01 06:41:19;;;;;;;9.15;3.30;;;19.50;99.90;;;;;;4910911;29;20049;-80
2023/08/01 06:43:46;;;;;;;8.90;3.30;;;19.50;99.90;;;;;;4911987;29;20056;-81
2023/08/01 06:46:13;;;;;;;5.68;3.00;;;19.50;99.90;;;;;;4913866;29;20053;-81
2023/08/01 06:48:40;;;;;;;6.63;3.50;;;19.60;99.90;;;;;;4913339;29;20057;-81
2023/08/01 06:51:06;;;;;;;7.22;3.45;;;19.60;99.90;;;;;;4927372;29;20135;-81
2023/08/01 06:53:33;;;;;;;5.40;3.10;;;19.60;99.90;;;;;;4922748;29;20575;-80
2023/08/01 06:56:00;;;;;;;8.18;3.20;;;19.60;99.90;;;;;;4910411;29;20052;-79
2023/08/01 06:58:26;;;;;;;5.65;3.13;;;19.60;99.90;;;;;;4908487;29;20049;-81
2023/08/01 07:00:53;;;;;;;5.20;3.25;;;19.70;99.90;;;;;;4911608;29;20048;-81
2023/08/01 07:03:20;;;;;;;5.93;3.00;;;19.60;99.90;;;;;;4909130;29;20473;-80
2023/08/01 07:05:46;;;;;;;6.00;2.65;;;19.60;99.90;;;;;;4913255;29;20056;-81
2023/08/01 07:08:13;;;;;;;6.88;3.08;;;19.60;99.90;;;;;;4906128;29;20048;-81
2023/08/01 07:10:40;;;;;;;4.72;2.70;;;19.60;99.90;;;;;;4910112;29;20120;-81
2023/08/01 07:13:07;;;;;;;5.25;2.60;;;19.60;99.90;;;;;;4910566;29;20044;-81
2023/08/01 07:15:33;;;;;;;4.25;2.45;;;19.60;99.90;;;;;;4908644;29;20536;-82
2023/08/01 07:18:00;;;;;;;5.95;3.17;;;19.60;99.90;;;;;;4906269;29;20100;-81
2023/08/01 07:20:30;;;;;;;5.55;2.70;;;19.60;99.90;;;;;;4907721;29;20527;-81
2023/08/01 07:22:57;;;;;;;7.40;3.08;;;19.60;99.90;;;;;;4911372;29;20915;-82
2023/08/01 07:25:25;;;;;;;5.55;3.10;;;19.60;99.90;;;;;;4908874;29;20057;-82
2023/08/01 07:27:51;;;;;;;5.05;2.60;;;19.60;99.90;;;;;;4910954;29;20076;-82
2023/08/01 07:30:18;;;;;;;4.97;2.75;;;19.60;99.90;;;;;;4910897;29;20053;-82
2023/08/01 07:32:45;;;;;;;4.82;2.58;;;19.50;99.90;;;;;;4921140;29;20555;-82
2023/08/01 07:35:13;;;;;;;4.82;2.50;;;19.50;99.90;;;;;;4907189;29;20103;-81
2023/08/01 07:37:39;;;;;;;5.45;2.85;;;19.50;99.90;;;;;;4905619;29;20103;-81
2023/08/01 07:40:07;;;;;;;6.25;2.97;;;19.50;99.90;;;;;;4909356;29;20083;-82
2023/08/01 07:42:33;;;;;;;5.47;2.42;;;19.50;99.90;;;;;;4912670;29;20054;-81
2023/08/01 07:45:00;;;;;;;4.85;2.70;;;19.50;99.90;;;;;;4908315;29;20134;-81
2023/08/01 07:47:27;;;;;;;4.75;2.67;;;19.40;99.90;;;;;;4905839;29;20080;-81
2023/08/01 07:49:54;;;;;;;4.97;2.63;;;19.40;99.90;;;;;;4907042;29;20060;-81
2023/08/01 07:52:20;;;;;;;4.80;2.65;;;19.40;99.90;;;;;;4906537;29;20333;-81
2023/08/01 07:54:47;;;;;;;6.15;2.90;;;19.30;99.90;;;;;;4920214;29;20084;-81
2023/08/01 07:57:14;;;;;;;5.60;2.60;;;19.30;99.90;;;;;;4911331;29;20140;-81
2023/08/01 07:59:40;;;;;;;6.70;3.00;;;19.30;99.90;;;;;;4909270;29;20048;-81
2023/08/01 08:02:07;;;;;;;7.70;3.03;;;19.30;99.90;;;;;;4906839;29;20514;-81
2023/08/01 08:04:34;;;;;;;5.03;2.47;;;19.30;99.90;;;;;;4906100;29;20048;-81
2023/08/01 08:07:00;;;;;;;5.32;2.80;;;19.30;99.90;;;;;;4908702;29;20045;-81
2023/08/01 08:09:27;;;;;;;3.70;2.20;;;19.20;99.90;;;;;;4902770;29;20658;-81
2023/08/01 08:11:57;;;;;;;9.63;2.95;;;19.30;99.90;;;;;;4912684;29;20127;-81
2023/08/01 08:14:23;;;;;;;4.88;2.67;;;19.30;99.90;;;;;;4914767;29;20335;-81
2023/08/01 08:16:51;;;;;;;3.65;2.35;;;19.30;99.90;;;;;;4923475;29;20095;-80
2023/08/01 08:19:17;;;;;;;5.63;3.53;;;19.30;99.90;;;;;;4909305;29;20056;-81
2023/08/01 08:21:44;;;;;;;4.97;2.60;;;19.30;99.90;;;;;;4927487;29;20040;-80
2023/08/01 08:24:11;;;;;;;4.38;2.10;;;19.30;99.90;;;;;;4915690;29;20059;-81
2023/08/01 08:26:39;;;;;;;4.70;2.50;;;19.20;99.90;;;;;;4910208;29;20174;-80
2023/08/01 08:29:07;;;;;;;4.88;2.10;;;19.20;99.90;;;;;;4907427;29;20169;-82
2023/08/01 08:31:33;;;;;;;3.13;1.90;;;19.20;99.90;;;;;;4911120;29;20591;-80
2023/08/01 08:34:00;;;;;;;2.95;2.17;;;19.10;99.90;;;;;;4906162;29;20048;-82
2023/08/01 08:36:27;;;;;;;3.78;2.05;;;19.20;99.90;;;;;;4909731;29;20052;-81
2023/08/01 08:38:54;;;;;;;3.35;2.30;;;19.20;99.90;;;;;;4912253;29;20040;-80
2023/08/01 08:41:25;;;;;;;4.32;2.28;;;19.30;99.90;;;;;;4908766;29;20077;-81
2023/08/01 08:43:56;;;;;;;5.18;2.13;;;19.30;99.90;;;;;;4906439;29;20112;-80
2023/08/01 08:46:28;;;;;;;4.25;2.03;;;19.30;99.90;;;;;;4912160;29;20084;-79
2023/08/01 08:48:57;;;;;;;3.35;1.98;;;19.40;99.90;;;;;;4911306;29;20054;-81
2023/08/01 08:51:27;;;;;;;2.53;2.00;;;19.40;99.90;;;;;;4913195;29;20052;-79
2023/08/01 08:53:55;;;;;;;2.58;1.95;;;19.50;99.90;;;;;;4906646;29;20056;-80
2023/08/01 08:56:23;;;;;;;3.28;1.83;;;19.60;99.90;;;;;;4905902;29;20049;-80
2023/08/01 08:58:50;;;;;;;4.00;2.72;;;19.60;99.90;;;;;;4908509;29;20048;-81
2023/08/01 09:01:18;;;;;;;3.33;2.05;;;19.60;99.90;;;;;;4904222;29;20075;-80
2023/08/01 09:03:45;;;;;;;2.75;1.70;;;19.70;99.90;;;;;;4909039;29;20108;-81
2023/08/01 09:06:16;;;;;;;3.88;1.88;;;19.80;99.90;;;;;;4911956;29;20057;-81
2023/08/01 09:08:51;;;;;;;4.10;2.10;;;19.90;99.90;;;;;;4919240;29;20055;-81
2023/08/01 09:11:18;;;;;;;4.57;1.67;;;20.00;99.90;;;;;;4913372;29;20057;-82
2023/08/01 09:13:45;;;;;;;3.30;1.70;;;20.00;99.90;;;;;;4912438;29;20052;-81
2023/08/01 09:16:13;;;;;;;3.33;1.50;;;20.20;99.90;;;;;;4909014;29;20405;-81
2023/08/01 09:18:51;;;;;;;2.08;1.52;;;20.20;99.90;;;;;;4915998;29;20059;-81
2023/08/01 09:21:22;;;;;;;4.75;1.80;;;20.30;99.90;;;;;;4910653;29;20132;-81
2023/08/01 09:23:49;;;;;;;2.40;1.50;;;20.40;99.90;;;;;;4902887;29;20057;-81
2023/08/01 09:26:17;;;;;;;3.40;2.08;;;20.50;99.90;;;;;;4903742;29;20080;-81
2023/08/01 09:28:43;;;;;;;4.43;1.70;;;20.50;99.90;;;;;;4909366;29;20080;-81
2023/08/01 09:31:11;;;;;;;4.72;1.83;;;20.60;99.90;;;;;;4904694;29;20080;-81
2023/08/01 09:33:41;;;;;;;2.70;1.77;;;20.70;99.90;;;;;;4904891;29;20579;-81
2023/08/01 09:36:09;;;;;;;3.25;1.70;;;20.70;99.90;;;;;;4908807;29;20077;-82
2023/08/01 09:38:37;;;;;;;2.85;1.58;;;20.70;99.90;;;;;;4909966;29;20103;-82
2023/08/01 09:41:04;;;;;;;2.38;1.65;;;20.60;99.90;;;;;;4911018;29;20588;-82
2023/08/01 09:43:37;;;;;;;3.63;1.83;;;20.70;99.90;;;;;;4911099;29;20048;-82
2023/08/01 09:46:07;;;;;;;2.92;1.90;;;20.70;99.90;;;;;;4914175;29;20092;-81
2023/08/01 09:48:33;;;;;;;2.45;1.33;;;20.70;99.90;;;;;;4910581;29;20135;-82
2023/08/01 09:51:08;;;;;;;3.20;1.50;;;20.80;99.90;;;;;;4912036;29;20052;-82
2023/08/01 09:53:45;;;;;;;4.25;1.30;;;20.80;99.90;;;;;;4917289;29;20048;-82
2023/08/01 09:56:16;;;;;;;2.60;1.45;;;20.80;99.90;;;;;;4911817;29;20397;-82
2023/08/01 09:58:44;;;;;;;2.20;1.60;;;20.90;99.90;;;;;;4911386;29;20464;-81
2023/08/01 10:01:13;;;;;;;3.17;1.60;;;21.20;99.90;;;;;;4907201;29;20041;-83
2023/08/01 10:03:46;;;;;;;2.40;1.52;;;21.30;99.90;;;;;;4908525;29;20056;-82
2023/08/01 10:06:18;;;;;;;2.65;1.40;;;21.30;99.90;;;;;;4914878;29;20058;-81
2023/08/01 10:08:46;;;;;;;2.97;1.67;;;21.40;99.90;;;;;;4913358;29;20052;-83
2023/08/01 10:11:16;;;;;;;3.28;1.63;;;21.50;99.90;;;;;;4910299;29;20071;-83
2023/08/01 10:13:43;;;;;;;3.05;1.30;;;21.50;99.90;;;;;;4914823;29;20119;-82
2023/08/01 10:16:11;;;;;;;2.67;1.55;;;21.50;99.90;;;;;;4906033;29;20112;-83
2023/08/01 10:18:39;;;;;;;2.25;1.42;;;21.50;99.90;;;;;;4910729;29;20052;-83
2023/08/01 10:21:13;;;;;;;3.10;1.52;;;21.50;99.90;;;;;;4908563;29;20052;-81
2023/08/01 10:23:41;;;;;;;1.27;1.10;;;21.40;99.90;;;;;;4927619;29;20047;-82
2023/08/01 10:26:09;;;;;;;1.63;1.30;;;21.40;99.90;;;;;;4911982;29;20108;-82
2023/08/01 10:28:49;;;;;;;1.23;1.02;;;21.30;99.90;;;;;;4927949;29;20076;-81
2023/08/01 10:31:17;;;;;;;2.38;1.20;;;21.40;99.90;;;;;;4915006;29;20099;-82
2023/08/01 10:33:48;;;;;;;1.75;1.48;;;21.40;99.90;;;;;;4912265;29;20055;-83
2023/08/01 10:36:23;;;;;;;2.40;1.48;;;21.50;99.90;;;;;;4916541;29;20051;-82
2023/08/01 10:38:52;;;;;;;2.42;1.52;;;21.60;99.90;;;;;;4912924;29;20500;-82
2023/08/01 10:41:19;;;;;;;3.45;1.42;;;21.70;99.90;;;;;;4918450;29;20138;-82
2023/08/01 10:43:46;;;;;;;2.03;1.30;;;21.80;99.90;;;;;;4911224;29;20055;-84
2023/08/01 10:46:13;;;;;;;1.60;1.20;;;21.90;99.90;;;;;;4911812;29;20519;-82
2023/08/01 10:48:52;;;;;;;1.88;1.40;;;21.90;99.90;;;;;;4910700;29;20120;-82
2023/08/01 10:51:19;;;;;;;1.45;1.13;;;22.00;99.90;;;;;;4912277;29;20056;-83
2023/08/01 10:53:46;;;;;;;5.53;2.35;;;22.00;99.90;;;;;;4914998;29;20056;-82
2023/08/01 10:56:18;;;;;;;1.63;1.08;;;22.10;99.90;;;;;;4904914;29;20044;-82
2023/08/01 10:58:46;;;;;;;1.60;1.17;;;22.20;99.90;;;;;;4914075;29;20135;-80
2023/08/01 11:01:13;;;;;;;1.88;1.10;;;22.10;99.90;;;;;;4912950;29;20056;-81
2023/08/01 11:03:41;;;;;;;2.15;1.00;;;22.00;99.90;;;;;;4906713;29;20128;-80
2023/08/01 11:06:08;;;;;;;2.70;1.10;;;22.00;99.90;;;;;;4916242;29;20052;-81
2023/08/01 11:08:40;;;;;;;1.77;1.30;;;22.00;99.90;;;;;;4916003;29;20056;-81
2023/08/01 11:11:10;;;;;;;2.33;1.10;;;22.00;99.90;;;;;;4912602;29;20048;-82
2023/08/01 11:13:40;;;;;;;6.80;1.55;;;21.90;99.90;;;;;;4912016;29;20697;-81
2023/08/01 11:16:07;;;;;;;4.00;1.45;;;21.90;99.90;;;;;;4911594;29;20132;-81
2023/08/01 11:18:44;;;;;;;1.67;1.02;;;21.90;99.90;;;;;;4907029;29;20060;-81
2023/08/01 11:21:10;;;;;;;2.00;1.25;;;21.90;99.90;;;;;;4910593;29;20057;-81
2023/08/01 11:23:37;;;;;;;2.75;1.45;;;21.80;99.90;;;;;;4911874;29;20574;-81
2023/08/01 11:26:08;;;;;;;1.88;1.30;;;21.60;99.90;;;;;;4913372;29;20070;-81
2023/08/01 11:28:35;;;;;;;3.05;1.42;;;21.50;99.90;;;;;;4909961;29;20094;-81
2023/08/01 11:31:13;;;;;;;2.38;1.35;;;21.40;99.90;;;;;;4912358;29;20099;-81
2023/08/01 11:33:40;;;;;;;4.18;1.38;;;21.30;99.90;;;;;;4915803;29;20079;-81
2023/08/01 11:36:09;;;;;;;2.45;1.30;;;21.20;99.90;;;;;;4911525;29;20080;-81
2023/08/01 11:38:36;;;;;;;1.80;1.20;;;21.20;99.90;;;;;;4913455;29;20081;-81
2023/08/01 11:41:04;;;;;;;2.88;1.40;;;21.30;99.90;;;;;;4918952;29;20127;-81
2023/08/01 11:43:43;;;;;;;3.03;1.55;;;21.40;99.90;;;;;;4912324;29;20128;-81
2023/08/01 11:46:11;;;;;;;2.25;1.38;;;21.40;99.90;;;;;;4914404;29;20056;-81
2023/08/01 11:48:39;;;;;;;1.65;1.33;;;21.50;99.90;;;;;;4909613;29;20080;-81
2023/08/01 11:51:05;;;;;;;1.23;1.13;;;21.60;99.90;;;;;;4909769;29;20048;-81
2023/08/01 11:53:38;;;;;;;1.63;1.20;;;21.60;99.90;;;;;;4912293;29;20116;-79
2023/08/01 11:56:05;;;;;;;1.80;1.00;;;21.70;99.90;;;;;;4912781;29;20123;-81
2023/08/01 11:58:34;;;;;;;1.33;0.90;;;21.70;99.90;;;;;;4913209;29;20044;-81
2023/08/01 12:01:06;;;;;;;1.75;1.20;;;21.60;99.90;;;;;;4908420;29;20067;-81
2023/08/01 12:03:54;;;;;;;1.17;0.80;;;21.70;99.90;;;;;;4906527;29;20048;-80
2023/08/01 12:06:23;;;;;;;2.00;1.23;;;21.70;99.90;;;;;;4911573;29;20144;-80
2023/08/01 12:08:52;;;;;;;2.28;0.98;;;21.70;99.90;;;;;;4909907;29;20063;-81
2023/08/01 12:11:20;;;;;;;1.35;0.70;;;21.80;99.90;;;;;;4906495;29;20052;-81
2023/08/01 12:13:48;;;;;;;1.33;1.10;;;21.80;99.90;;;;;;4912147;29;20048;-81
2023/08/01 12:16:19;;;;;;;1.15;0.70;;;21.90;99.90;;;;;;4922982;29;20081;-81
2023/08/01 12:18:48;;;;;;;4.47;0.93;;;21.90;99.90;;;;;;4906798;29;20136;-81
2023/08/01 12:21:25;;;;;;;3.00;1.02;;;21.90;99.90;;;;;;4911054;29;20040;-82
2023/08/01 12:23:53;;;;;;;1.50;0.80;;;22.00;99.90;;;;;;4910732;29;20051;-82
2023/08/01 12:26:20;;;;;;;1.08;0.80;;;22.10;99.90;;;;;;4915374;29;20052;-81
2023/08/01 12:28:47;;;;;;;1.02;0.90;;;22.10;99.90;;;;;;4910897;29;20060;-81
2023/08/01 12:31:20;;;;;;;0.98;0.43;;;22.10;99.90;;;;;;4909710;29;20091;-81
2023/08/01 12:33:48;;;;;;;0.98;0.60;;;22.10;99.90;;;;;;4912380;29;20080;-81
2023/08/01 12:36:15;;;;;;;0.90;0.43;;;22.00;99.90;;;;;;4918149;29;20053;-81
2023/08/01 12:38:42;;;;;;;0.82;0.45;;;21.80;99.90;;;;;;4912322;29;20048;-81
2023/08/01 12:41:09;;;;;;;0.88;0.43;;;21.80;99.90;;;;;;4906557;29;20054;-81
2023/08/01 12:43:36;;;;;;;0.75;0.40;;;21.70;99.90;;;;;;4910976;29;20052;-81
2023/08/01 12:46:03;;;;;;;0.40;0.40;;;21.60;99.90;;;;;;4910689;29;20048;-81
2023/08/01 12:48:30;;;;;;;0.30;0.30;;;21.60;99.90;;;;;;4928742;29;20055;-81
2023/08/01 12:50:57;;;;;;;2.55;0.40;;;21.50;99.90;;;;;;4912171;29;20056;-82
2023/08/01 12:53:23;;;;;;;0.82;0.32;;;21.50;99.90;;;;;;4926596;29;20060;-81
2023/08/01 12:55:52;;;;;;;0.77;0.40;;;21.40;99.90;;;;;;4917307;29;20107;-82
2023/08/01 12:58:19;;;;;;;0.75;0.50;;;21.40;99.90;;;;;;4911224;29;20059;-82
2023/08/01 13:00:45;;;;;;;1.48;0.43;;;21.50;99.90;;;;;;4911424;29;20120;-82
2023/08/01 13:03:12;;;;;;;1.05;0.60;;;21.50;99.90;;;;;;4918433;29;20048;-81
2023/08/01 13:05:41;;;;;;;0.32;0.32;;;21.50;99.90;;;;;;4909227;29;20084;-82
2023/08/01 13:08:08;;;;;;;1.20;0.40;;;21.60;99.90;;;;;;4912070;29;20048;-81
2023/08/01 13:10:37;;;;;;;0.50;0.32;;;21.60;99.90;;;;;;4916688;29;20108;-82
2023/08/01 13:13:04;;;;;;;0.65;0.38;;;21.70;99.90;;;;;;4919823;29;20056;-82
2023/08/01 13:15:31;;;;;;;1.52;0.43;;;21.80;99.90;;;;;;4911477;29;20527;-81
2023/08/01 13:17:58;;;;;;;0.43;0.40;;;21.90;99.90;;;;;;4919830;29;20428;-81
2023/08/01 13:20:25;;;;;;;2.25;0.50;;;21.90;99.90;;;;;;4909630;29;20080;-82
2023/08/01 13:22:55;;;;;;;0.30;0.30;;;22.10;99.90;;;;;;4911696;29;20059;-82
2023/08/01 13:25:22;;;;;;;0.70;0.43;;;22.10;99.90;;;;;;4911598;29;20052;-82
2023/08/01 13:27:49;;;;;;;0.73;0.50;;;22.20;99.90;;;;;;4909130;29;20060;-81
2023/08/01 13:30:17;;;;;;;0.98;0.50;;;22.30;99.90;;;;;;4914794;29;20435;-81
2023/08/01 13:32:45;;;;;;;0.40;0.30;;;22.40;99.90;;;;;;4917978;29;20056;-82
2023/08/01 13:35:13;;;;;;;1.23;0.60;;;22.40;99.90;;;;;;4917529;29;20506;-82
2023/08/01 13:37:40;;;;;;;1.25;0.50;;;22.70;99.90;;;;;;4910305;29;20052;-81
2023/08/01 13:40:07;;;;;;;0.80;0.40;;;22.70;99.90;;;;;;4910602;29;20048;-82
2023/08/01 13:42:34;;;;;;;2.55;0.60;;;22.90;99.90;;;;;;4905149;29;20051;-82
2023/08/01 13:45:01;;;;;;;0.50;0.50;;;23.00;99.90;;;;;;4916766;29;20523;-82
2023/08/01 13:47:28;;;;;;;1.85;0.52;;;23.10;99.90;;;;;;4919060;29;20100;-82
2023/08/01 13:49:55;;;;;;;1.20;0.50;;;23.10;99.90;;;;;;4912371;29;20080;-82
2023/08/01 13:52:22;;;;;;;1.40;0.57;;;23.20;99.90;;;;;;4916742;29;20055;-82
2023/08/01 13:54:48;;;;;;;2.35;0.40;;;23.30;99.90;;;;;;4915152;29;20512;-82
2023/08/01 13:57:15;;;;;;;1.35;0.40;;;23.30;99.90;;;;;;4908236;29;20076;-81
2023/08/01 13:59:42;;;;;;;1.35;0.70;;;23.40;99.90;;;;;;4916735;29;20052;-81
2023/08/01 14:02:10;;;;;;;0.60;0.60;;;23.40;99.90;;;;;;4918455;29;20059;-82
2023/08/01 14:04:38;;;;;;;1.27;0.90;;;23.40;99.90;;;;;;4911692;29;20060;-82
2023/08/01 14:07:06;;;;;;;0.40;0.30;;;23.50;99.90;;;;;;4913683;29;20056;-82
2023/08/01 14:09:35;;;;;;;0.43;0.40;;;23.50;99.90;;;;;;4915012;29;20052;-82
2023/08/01 14:12:03;;;;;;;3.05;0.57;;;23.50;99.90;;;;;;4922911;29;20421;-82
2023/08/01 14:14:30;;;;;;;1.13;0.50;;;23.40;99.90;;;;;;4917872;29;20155;-82
2023/08/01 14:16:57;;;;;;;0.75;0.55;;;23.40;99.90;;;;;;4918821;29;20111;-82
2023/08/01 14:19:29;;;;;;;2.15;0.50;;;23.50;99.90;;;;;;4911162;29;20049;-82
2023/08/01 14:21:57;;;;;;;5.07;0.90;;;23.50;99.90;;;;;;4929593;29;20068;-82
2023/08/01 14:24:24;;;;;;;0.80;0.50;;;23.60;99.90;;;;;;4912762;29;20116;-82
2023/08/01 14:26:51;;;;;;;0.80;0.60;;;23.80;99.90;;;;;;4909052;29;20125;-82
2023/08/01 14:29:22;;;;;;;1.42;0.40;;;23.90;99.90;;;;;;4919499;29;20052;-82
2023/08/01 14:31:52;;;;;;;0.85;0.52;;;24.00;99.90;;;;;;4918376;29;20048;-81
2023/08/01 14:34:19;;;;;;;1.33;0.65;;;24.10;99.90;;;;;;4913748;29;20088;-82
2023/08/01 14:36:45;;;;;;;1.95;1.13;;;24.20;99.90;;;;;;4913033;29;20554;-82
2023/08/01 14:39:13;;;;;;;0.60;0.52;;;24.20;99.90;;;;;;4913637;29;20052;-82
2023/08/01 14:41:49;;;;;;;1.13;0.65;;;24.40;99.90;;;;;;4909284;29;20183;-82
2023/08/01 14:44:18;;;;;;;0.60;0.52;;;24.40;99.90;;;;;;4911137;29;20112;-82
2023/08/01 14:46:46;;;;;;;1.50;0.50;;;24.50;99.90;;;;;;4907288;29;20052;-82
2023/08/01 14:49:12;;;;;;;0.82;0.70;;;24.30;99.90;;;;;;4910205;29;20574;-80
2023/08/01 14:51:39;;;;;;;0.82;0.60;;;24.30;99.90;;;;;;4910097;29;20140;-81
2023/08/01 14:54:06;;;;;;;2.17;0.73;;;24.20;99.90;;;;;;4924461;29;20076;-82
2023/08/01 14:56:32;;;;;;;1.05;0.68;;;24.10;99.90;;;;;;4913660;29;20472;-82
2023/08/01 14:58:59;;;;;;;1.23;0.80;;;23.90;99.90;;;;;;4911555;29;20503;-81
2023/08/01 15:01:26;;;;;;;1.92;0.80;;;23.90;99.90;;;;;;4914358;29;20044;-81
2023/08/01 15:03:53;;;;;;;3.20;0.75;;;23.90;99.90;;;;;;4911167;29;20518;-80
2023/08/01 15:06:20;;;;;;;1.73;0.77;;;23.70;99.90;;;;;;4907112;29;20123;-81
2023/08/01 15:08:47;;;;;;;0.63;0.60;;;23.70;99.90;;;;;;4910453;29;20587;-82
2023/08/01 15:11:14;;;;;;;2.33;0.63;;;23.60;99.90;;;;;;4909545;29;20083;-81
2023/08/01 15:13:40;;;;;;;1.83;0.60;;;23.60;99.90;;;;;;4913683;29;20135;-81
2023/08/01 15:16:14;;;;;;;1.85;0.55;;;23.60;99.90;;;;;;4907622;29;20421;-80
2023/08/01 15:18:41;;;;;;;1.85;0.77;;;23.50;99.90;;;;;;4910646;29;20052;-81
2023/08/01 15:21:07;;;;;;;1.30;0.68;;;23.50;99.90;;;;;;4907480;29;20175;-82
2023/08/01 15:23:34;;;;;;;2.22;0.95;;;23.50;99.90;;;;;;4909754;29;20056;-81
2023/08/01 15:26:01;;;;;;;1.30;0.80;;;23.50;99.90;;;;;;4908430;29;20052;-81
2023/08/01 15:28:28;;;;;;;0.95;0.68;;;23.50;99.90;;;;;;4912894;29;20056;-81
2023/08/01 15:31:02;;;;;;;2.58;0.70;;;23.50;99.90;;;;;;4911279;29;20056;-82
2023/08/01 15:33:34;;;;;;;1.75;0.77;;;23.50;99.90;;;;;;4911228;29;20059;-81
2023/08/01 15:36:03;;;;;;;1.58;0.70;;;23.50;99.90;;;;;;4916620;29;20078;-82
2023/08/01 15:38:31;;;;;;;1.48;0.77;;;23.60;99.90;;;;;;4912122;29;20102;-82
2023/08/01 15:41:01;;;;;;;2.35;0.95;;;23.50;99.90;;;;;;4909766;29;20142;-82
2023/08/01 15:43:29;;;;;;;1.20;0.82;;;23.50;99.90;;;;;;4912339;29;20117;-81
2023/08/01 15:45:56;;;;;;;1.10;1.00;;;23.50;99.90;;;;;;4909561;29;20048;-82
2023/08/01 15:48:23;;;;;;;1.58;0.90;;;23.50;99.90;;;;;;4911943;29;21899;-83
2023/08/01 15:50:50;;;;;;;1.27;0.95;;;23.50;99.90;;;;;;4918330;29;20503;-81
2023/08/01 15:53:16;;;;;;;1.63;0.85;;;23.40;99.90;;;;;;4914360;29;20085;-81
2023/08/01 15:55:43;;;;;;;1.60;0.90;;;23.30;99.90;;;;;;4909719;29;20108;-80
2023/08/01 15:58:10;;;;;;;2.00;1.00;;;23.30;99.90;;;;;;4909828;29;20056;-81
2023/08/01 16:00:37;;;;;;;3.90;1.27;;;23.30;99.90;;;;;;4911021;29;20068;-80
2023/08/01 16:03:04;;;;;;;4.85;0.90;;;23.20;99.90;;;;;;4910201;29;20045;-82
2023/08/01 16:05:31;;;;;;;1.05;0.85;;;23.20;99.90;;;;;;4906122;29;20044;-81
2023/08/01 16:07:59;;;;;;;1.27;0.88;;;23.20;99.90;;;;;;4908830;29;20076;-82
2023/08/01 16:10:25;;;;;;;2.80;1.00;;;23.20;99.90;;;;;;4929784;29;20051;-81
2023/08/01 16:12:52;;;;;;;0.70;0.70;;;23.10;99.90;;;;;;4915274;29;20060;-82
2023/08/01 16:15:19;;;;;;;1.60;1.30;;;23.10;99.90;;;;;;4911659;29;20044;-81
2023/08/01 16:17:46;;;;;;;3.05;1.17;;;23.10;99.90;;;;;;4910140;29;20044;-82
2023/08/01 16:20:12;;;;;;;1.55;0.90;;;23.10;99.90;;;;;;4909742;29;20053;-82
2023/08/01 16:22:42;;;;;;;5.65;1.67;;;23.10;99.90;;;;;;4910415;29;20096;-81
2023/08/01 16:25:09;;;;;;;1.20;0.90;;;23.10;99.90;;;;;;4915851;29;20060;-82
2023/08/01 16:27:36;;;;;;;3.33;1.02;;;23.10;99.90;;;;;;4915034;29;20069;-81
2023/08/01 16:30:03;;;;;;;3.10;1.15;;;23.10;99.90;;;;;;4914805;29;20076;-82
2023/08/01 16:32:30;;;;;;;1.20;1.00;;;23.10;99.90;;;;;;4912567;29;20047;-82
2023/08/01 16:34:57;;;;;;;2.00;0.90;;;23.10;99.90;;;;;;4899117;23;20053;-83
2023/08/01 16:37:23;;;;;;;1.88;1.27;;;23.00;99.90;;;;;;4875981;29;20122;-82
2023/08/01 16:39:50;;;;;;;1.88;1.10;;;22.90;99.90;;;;;;4885350;29;20042;-84
2023/08/01 16:42:17;;;;;;;1.48;0.90;;;22.90;99.90;;;;;;4871328;29;20132;-83
2023/08/01 16:44:43;;;;;;;1.85;0.80;;;22.90;99.90;;;;;;4870610;29;20425;-82
2023/08/01 16:47:10;;;;;;;2.42;0.60;;;22.80;99.90;;;;;;4886613;29;20049;-83
2023/08/01 16:49:38;;;;;;;2.15;0.80;;;22.80;99.90;;;;;;4866341;29;20082;-81
2023/08/01 16:52:05;;;;;;;1.85;1.15;;;22.80;99.90;;;;;;4892718;29;20101;-84
2023/08/01 16:54:32;;;;;;;1.65;0.77;;;22.80;99.90;;;;;;4873725;29;20133;-82
2023/08/01 16:56:58;;;;;;;2.67;0.82;;;22.70;99.90;;;;;;4869793;29;20045;-82
2023/08/01 16:59:25;;;;;;;1.73;0.90;;;22.70;99.90;;;;;;4878541;29;20045;-83
2023/08/01 17:01:52;;;;;;;1.23;0.70;;;22.60;99.90;;;;;;4872466;29;20125;-83
2023/08/01 17:04:19;;;;;;;2.63;0.90;;;22.40;99.90;;;;;;4891721;29;20105;-83
2023/08/01 17:06:45;;;;;;;2.53;0.98;;;22.50;99.90;;;;;;4883676;29;20057;-84
2023/08/01 17:09:12;;;;;;;1.15;0.70;;;22.40;99.90;;;;;;4883931;29;20085;-83
2023/08/01 17:11:39;;;;;;;0.93;0.52;;;22.30;99.90;;;;;;4881405;29;20081;-83
2023/08/01 17:14:06;;;;;;;1.95;0.68;;;22.20;99.90;;;;;;4863817;29;20098;-82
2023/08/01 17:16:33;;;;;;;3.03;0.93;;;22.20;99.90;;;;;;4875331;29;20077;-84
2023/08/01 17:19:00;;;;;;;2.75;1.00;;;22.10;99.90;;;;;;4872090;29;20410;-85
2023/08/01 17:21:26;;;;;;;2.25;0.90;;;21.90;99.90;;;;;;4881736;29;20069;-83
2023/08/01 17:23:53;;;;;;;5.65;1.40;;;21.90;99.90;;;;;;4874974;29;20079;-84
2023/08/01 17:26:20;;;;;;;3.63;1.20;;;21.80;99.90;;;;;;4882238;29;20052;-83
2023/08/01 17:28:47;;;;;;;2.13;1.15;;;21.90;99.90;;;;;;4882606;29;20563;-83
2023/08/01 17:31:13;;;;;;;1.40;0.90;;;21.80;99.90;;;;;;4888679;29;20065;-82
2023/08/01 17:33:40;;;;;;;1.40;0.75;;;21.80;99.90;;;;;;4881257;29;20049;-86
2023/08/01 17:36:07;;;;;;;1.63;1.10;;;21.80;99.90;;;;;;4897683;29;20045;-82
2023/08/01 17:38:35;;;;;;;2.15;0.93;;;21.90;99.90;;;;;;4896609;29;20049;-82
2023/08/01 17:41:25;;;;;;;6.63;1.30;;;21.90;99.90;;;;;;4902940;29;20045;-82
2023/08/01 17:43:54;;;;;;;4.47;1.00;;;21.90;99.90;;;;;;4891591;29;20041;-80
2023/08/01 17:46:21;;;;;;;3.10;1.02;;;21.90;99.90;;;;;;4885215;29;20049;-84
2023/08/01 17:48:48;;;;;;;1.75;0.80;;;21.90;99.90;;;;;;4873004;29;20053;-85
2023/08/01 17:51:17;;;;;;;2.30;1.00;;;22.00;99.90;;;;;;4888251;29;20134;-85
2023/08/01 17:53:44;;;;;;;1.55;1.02;;;22.00;99.90;;;;;;4887061;29;20053;-82
2023/08/01 17:56:12;;;;;;;2.13;0.80;;;21.90;99.90;;;;;;4890154;29;20318;-82
2023/08/01 17:58:39;;;;;;;1.92;0.93;;;21.90;99.90;;;;;;4892177;29;20101;-82
2023/08/01 18:01:09;;;;;;;3.25;1.02;;;21.90;99.90;;;;;;4875310;29;20049;-83
2023/08/01 18:03:37;;;;;;;2.67;1.10;;;21.80;99.90;;;;;;4875148;29;20056;-83
2023/08/01 18:06:08;;;;;;;2.15;1.10;;;21.80;99.90;;;;;;4870676;29;20046;-84
2023/08/01 18:08:35;;;;;;;2.13;1.05;;;21.70;99.90;;;;;;4869785;29;20045;-84
2023/08/01 18:11:12;;;;;;;3.22;1.00;;;21.80;99.90;;;;;;4879355;29;20628;-82
2023/08/01 18:13:46;;;;;;;2.20;1.00;;;21.80;99.90;;;;;;4870962;29;20125;-83
2023/08/01 18:16:20;;;;;;;2.42;0.88;;;21.70;99.90;;;;;;4875570;29;20088;-83
2023/08/01 18:18:47;;;;;;;2.38;0.90;;;21.70;99.90;;;;;;4876554;29;20505;-83
2023/08/01 18:21:14;;;;;;;2.08;0.82;;;21.70;99.90;;;;;;4876377;29;20045;-84
2023/08/01 18:23:41;;;;;;;1.80;1.00;;;21.70;99.90;;;;;;4879836;29;20049;-84
2023/08/01 18:26:22;;;;;;;3.22;1.08;;;21.60;99.90;;;;;;4873427;29;20063;-84
2023/08/01 18:28:50;;;;;;;3.10;0.90;;;21.60;99.90;;;;;;4876172;29;20057;-83
2023/08/01 18:31:17;;;;;;;1.88;1.00;;;21.50;99.90;;;;;;4869132;29;20089;-84
2023/08/01 18:33:43;;;;;;;2.25;1.00;;;21.40;99.90;;;;;;4872846;29;20157;-81
2023/08/01 18:36:17;;;;;;;3.20;0.93;;;21.40;99.90;;;;;;4878638;29;20087;-83
2023/08/01 18:38:45;;;;;;;1.88;0.73;;;21.30;99.90;;;;;;4875211;29;20065;-82